createdAt,value
2019-04-02T00:02:31.067Z,72.20
2019-04-02T00:04:58.460Z,73.39
2019-04-02T00:07:26.153Z,72.80
2019-04-02T00:09:54.474Z,73.41
2019-04-02T00:12:22.327Z,74.41
2019-04-02T00:14:49.651Z,74.98
2019-04-02T00:17:17.079Z,75.71
2019-04-02T00:19:44.464Z,72.68
2019-04-02T00:22:11.804Z,74.03
2019-04-02T00:24:39.248Z,73.01
2019-04-02T00:27:06.607Z,73.70
2019-04-02T00:29:33.933Z,74.87
2019-04-02T00:32:01.315Z,75.73
2019-04-02T00:34:28.691Z,75.75
2019-04-02T00:36:56.053Z,75.87
2019-04-02T00:39:23.381Z,76.54
2019-04-02T00:41:50.790Z,76.12
2019-04-02T00:44:18.142Z,74.71
2019-04-02T00:46:45.504Z,76.32
2019-04-02T00:49:13.279Z,78.86
2019-04-02T00:51:42.157Z,77.51
2019-04-02T00:54:09.531Z,76.16
2019-04-02T00:56:36.931Z,74.03
2019-04-02T00:59:04.305Z,73.50
2019-04-02T01:01:31.671Z,76.49
2019-04-02T01:03:59.071Z,78.75
2019-04-02T01:06:26.446Z,79.58
2019-04-02T01:08:53.780Z,79.61
2019-04-02T01:11:21.248Z,77.43
2019-04-02T01:13:49.101Z,78.06
2019-04-02T01:16:16.471Z,76.71
2019-04-02T01:18:43.873Z,77.23
2019-04-02T01:21:11.263Z,76.44
2019-04-02T01:23:38.649Z,77.40
2019-04-02T01:26:05.991Z,78.55
2019-04-02T01:28:33.353Z,77.71
2019-04-02T01:31:00.799Z,77.42
2019-04-02T01:33:28.134Z,77.18
2019-04-02T01:35:55.911Z,76.35
2019-04-02T01:38:23.275Z,77.33
2019-04-02T01:40:50.631Z,75.87
2019-04-02T01:43:18.029Z,74.65
2019-04-02T01:45:45.390Z,75.15
2019-04-02T01:48:13.311Z,75.20
2019-04-02T01:50:41.244Z,75.57
2019-04-02T01:53:08.611Z,76.29
2019-04-02T01:55:36.011Z,76.46
2019-04-02T01:58:03.353Z,76.87
2019-04-02T02:00:30.968Z,76.47
2019-04-02T02:02:58.393Z,76.95
2019-04-02T02:05:25.731Z,77.81
2019-04-02T02:07:53.093Z,79.54
2019-04-02T02:10:20.489Z,77.52
2019-04-02T02:12:47.851Z,80.82
2019-04-02T02:15:15.283Z,80.29
2019-04-02T02:17:42.697Z,78.89
2019-04-02T02:20:10.132Z,79.16
2019-04-02T02:22:37.485Z,80.82
2019-04-02T02:25:04.991Z,80.10
2019-04-02T02:27:33.222Z,79.37
2019-04-02T02:30:01.612Z,77.97
2019-04-02T02:32:28.971Z,77.36
2019-04-02T02:34:56.346Z,78.10
2019-04-02T02:37:23.709Z,76.89
2019-04-02T02:39:53.261Z,77.23
2019-04-02T02:42:20.631Z,77.49
2019-04-02T02:44:48.040Z,77.71
2019-04-02T02:47:16.311Z,78.41
2019-04-02T02:49:43.912Z,80.37
2019-04-02T02:52:11.312Z,79.21
2019-04-02T02:54:38.647Z,79.36
2019-04-02T02:57:06.066Z,80.23
2019-04-02T02:59:33.441Z,77.77
2019-04-02T03:02:00.770Z,79.82
2019-04-02T03:04:30.832Z,81.89
2019-04-02T03:06:58.325Z,80.41
2019-04-02T03:09:25.752Z,81.18
2019-04-02T03:11:53.108Z,80.43
2019-04-02T03:14:20.492Z,78.90
2019-04-02T03:16:47.893Z,78.91
2019-04-02T03:19:15.288Z,80.86
2019-04-02T03:21:42.646Z,81.58
2019-04-02T03:24:10.023Z,80.04
2019-04-02T03:26:37.401Z,81.01
2019-04-02T03:29:04.815Z,82.17
2019-04-02T03:31:34.790Z,82.10
2019-04-02T03:34:01.442Z,80.33
2019-04-02T03:36:28.832Z,78.24
2019-04-02T03:38:56.194Z,79.21
2019-04-02T03:41:23.611Z,79.11
2019-04-02T03:43:50.952Z,79.62
2019-04-02T03:46:18.448Z,81.78
2019-04-02T03:48:45.848Z,81.23
2019-04-02T03:51:15.789Z,81.63
2019-04-02T03:53:42.493Z,82.20
2019-04-02T03:56:09.846Z,80.14
2019-04-02T03:58:37.207Z,82.01
2019-04-02T04:01:04.573Z,80.43
2019-04-02T04:03:32.764Z,81.30
2019-04-02T04:06:00.242Z,82.02
2019-04-02T04:08:27.653Z,81.85
2019-04-02T04:11:03.872Z,81.33
2019-04-02T04:13:31.292Z,80.74
2019-04-02T04:15:58.681Z,82.16
2019-04-02T04:18:26.002Z,81.38
2019-04-02T04:20:53.406Z,80.52
2019-04-02T04:23:20.856Z,81.60
2019-04-02T04:25:48.383Z,82.06
2019-04-02T04:28:15.756Z,81.91
2019-04-02T04:30:43.116Z,81.85
2019-04-02T04:33:10.529Z,82.62
2019-04-02T04:35:39.957Z,81.78
2019-04-02T04:38:07.128Z,82.56
2019-04-02T04:40:34.761Z,80.69
2019-04-02T04:43:02.172Z,81.45
2019-04-02T04:45:31.018Z,81.25
2019-04-02T04:47:59.692Z,82.58
2019-04-02T04:50:28.622Z,81.96
2019-04-02T04:52:57.264Z,79.44
2019-04-02T04:55:26.512Z,81.35
2019-04-02T04:57:55.226Z,79.84
2019-04-02T05:00:24.457Z,79.24
2019-04-02T05:03:28.580Z,79.42
2019-04-02T05:05:55.971Z,79.13
2019-04-02T05:08:23.429Z,80.29
2019-04-02T05:10:51.610Z,80.22
2019-04-02T05:13:19.394Z,80.65
2019-04-02T05:15:46.751Z,79.94
2019-04-02T05:18:14.171Z,79.42
2019-04-02T05:20:41.525Z,79.27
2019-04-02T05:23:08.900Z,79.85
2019-04-02T05:25:36.368Z,81.08
2019-04-02T05:28:03.760Z,80.51
2019-04-02T05:30:31.153Z,81.49
2019-04-02T05:33:00.336Z,80.17
2019-04-02T05:35:27.840Z,78.72
2019-04-02T05:37:55.271Z,79.86
2019-04-02T05:40:22.606Z,81.10
2019-04-02T05:42:50.005Z,80.39
2019-04-02T05:45:17.353Z,79.69
2019-04-02T05:47:44.749Z,81.30
2019-04-02T05:50:12.209Z,80.77
2019-04-02T05:52:39.570Z,81.00
2019-04-02T05:55:07.117Z,78.79
2019-04-02T05:57:34.527Z,78.77
2019-04-02T06:00:02.071Z,78.70
2019-04-02T06:02:29.406Z,77.95
2019-04-02T06:04:56.831Z,78.21
2019-04-02T06:07:24.190Z,78.20
2019-04-02T06:09:51.656Z,78.98
2019-04-02T06:12:19.047Z,78.54
2019-04-02T06:14:46.427Z,77.48
2019-04-02T06:17:13.781Z,77.89
2019-04-02T06:19:46.981Z,78.45
2019-04-02T06:22:10.432Z,78.71
2019-04-02T06:24:37.861Z,78.21
2019-04-02T06:27:05.207Z,78.64
2019-04-02T06:29:34.086Z,78.92
2019-04-02T06:32:01.491Z,78.70
2019-04-02T06:34:28.869Z,78.55
2019-04-02T06:36:56.245Z,77.79
2019-04-02T06:39:26.135Z,78.28
2019-04-02T06:41:52.891Z,77.38
2019-04-02T06:44:24.464Z,77.59
2019-04-02T06:46:50.880Z,77.98
2019-04-02T06:49:36.447Z,76.99
2019-04-02T06:52:03.814Z,76.75
2019-04-02T06:54:31.446Z,76.76
2019-04-02T06:56:59.120Z,75.80
2019-04-02T06:59:26.927Z,75.83
2019-04-02T07:01:54.315Z,75.39
2019-04-02T07:04:21.712Z,75.49
2019-04-02T07:06:49.116Z,75.50
2019-04-02T07:09:16.860Z,74.40
2019-04-02T07:11:44.207Z,75.48
2019-04-02T07:14:11.684Z,74.84
2019-04-02T07:16:42.056Z,75.48
2019-04-02T07:19:09.481Z,76.00
2019-04-02T07:21:36.819Z,75.07
2019-04-02T07:24:04.200Z,75.53
2019-04-02T07:26:31.894Z,74.48
2019-04-02T07:28:59.214Z,74.69
2019-04-02T07:31:26.628Z,75.35
2019-04-02T07:33:54.002Z,69.00
2019-04-02T07:36:21.375Z,71.00
2019-04-02T07:38:48.780Z,70.58
2019-04-02T07:41:16.172Z,64.58
2019-04-02T07:43:43.593Z,63.34
2019-04-02T07:46:10.976Z,65.00
2019-04-02T07:48:38.353Z,63.72
2019-04-02T07:51:05.711Z,64.37
2019-04-02T07:53:33.066Z,63.86
2019-04-02T07:56:00.421Z,64.25
2019-04-02T07:58:27.799Z,61.70
2019-04-02T08:00:55.961Z,61.63
2019-04-02T08:03:23.684Z,61.97
2019-04-02T08:05:51.023Z,62.29
2019-04-02T08:08:18.451Z,61.46
2019-04-02T08:10:45.764Z,60.50
2019-04-02T08:13:13.167Z,60.97
2019-04-02T08:15:40.525Z,61.03
2019-04-02T08:18:19.321Z,62.50
2019-04-02T08:20:46.705Z,61.62
2019-04-02T08:23:14.024Z,61.64
2019-04-02T08:25:41.382Z,61.89
2019-04-02T08:28:08.758Z,60.81
2019-04-02T08:30:36.469Z,60.05
2019-04-02T08:33:03.819Z,60.50
2019-04-02T08:35:31.148Z,60.18
2019-04-02T08:37:58.529Z,60.14
2019-04-02T08:40:26.155Z,61.04
2019-04-02T08:42:53.589Z,61.07
2019-04-02T08:45:20.909Z,61.32
2019-04-02T08:47:48.271Z,59.51
2019-04-02T08:50:15.785Z,57.91
2019-04-02T08:52:43.111Z,57.27
2019-04-02T08:55:11.128Z,55.63
2019-04-02T08:57:38.866Z,56.58
2019-04-02T09:00:09.519Z,55.79
2019-04-02T09:02:36.899Z,55.34
2019-04-02T09:05:05.153Z,54.71
2019-04-02T09:07:33.283Z,54.55
2019-04-02T09:10:00.784Z,54.98
2019-04-02T09:12:28.163Z,54.57
2019-04-02T09:14:55.541Z,54.09
2019-04-02T09:17:22.923Z,54.04
2019-04-02T09:19:50.308Z,54.55
2019-04-02T09:22:17.609Z,54.24
2019-04-02T09:24:44.965Z,53.57
2019-04-02T09:27:12.349Z,53.26
2019-04-02T09:29:39.790Z,53.49
2019-04-02T09:32:07.191Z,52.65
2019-04-02T09:34:34.539Z,54.20
2019-04-02T09:37:01.899Z,53.19
2019-04-02T09:39:29.330Z,52.49
2019-04-02T09:41:56.667Z,53.14
2019-04-02T09:44:24.029Z,52.75
2019-04-02T09:46:51.440Z,51.09
2019-04-02T09:49:18.782Z,52.27
2019-04-02T09:51:46.126Z,51.69
2019-04-02T09:54:13.584Z,52.24
2019-04-02T09:56:40.997Z,50.41
2019-04-02T09:59:08.411Z,50.61
2019-04-02T10:01:37.803Z,50.93
2019-04-02T10:04:08.128Z,51.64
2019-04-02T10:06:34.411Z,50.61
2019-04-02T10:09:02.431Z,49.50
2019-04-02T10:11:29.783Z,51.00
2019-04-02T10:13:57.182Z,49.59
2019-04-02T10:16:24.639Z,49.87
2019-04-02T10:18:52.595Z,48.45
2019-04-02T10:21:20.197Z,48.43
2019-04-02T10:23:47.636Z,49.25
2019-04-02T10:26:15.133Z,48.65
2019-04-02T10:28:42.546Z,47.76
2019-04-02T10:31:10.024Z,47.91
2019-04-02T10:33:37.372Z,48.35
2019-04-02T10:36:04.768Z,47.90
2019-04-02T10:38:32.152Z,46.85
2019-04-02T10:40:59.952Z,47.10
2019-04-02T10:43:27.281Z,46.46
2019-04-02T10:45:54.697Z,46.82
2019-04-02T10:48:22.046Z,43.48
2019-04-02T10:50:49.347Z,44.42
2019-04-02T10:53:16.690Z,42.61
2019-04-02T10:55:44.045Z,41.23
2019-04-02T10:58:12.181Z,41.24
2019-04-02T11:00:40.275Z,41.55
2019-04-02T11:03:07.639Z,40.30
2019-04-02T11:05:34.980Z,39.53
2019-04-02T11:08:02.365Z,41.77
2019-04-02T11:10:29.778Z,37.84
2019-04-02T11:12:57.150Z,35.99
2019-04-02T11:15:24.511Z,37.54
2019-04-02T11:17:51.898Z,36.97
2019-04-02T11:20:19.263Z,36.01
2019-04-02T11:22:46.630Z,38.74
2019-04-02T11:25:14.085Z,36.73
2019-04-02T11:27:41.476Z,37.25
2019-04-02T11:30:09.216Z,37.15
2019-04-02T11:32:36.589Z,37.34
2019-04-02T11:35:05.900Z,36.01
2019-04-02T11:37:33.259Z,35.56
2019-04-02T11:40:00.652Z,35.64
2019-04-02T11:42:27.970Z,34.60
2019-04-02T11:44:55.339Z,35.08
2019-04-02T11:47:22.851Z,35.99
2019-04-02T11:49:50.249Z,35.55
2019-04-02T11:52:17.627Z,34.68
2019-04-02T11:54:44.955Z,35.20
2019-04-02T11:57:12.410Z,34.81
2019-04-02T11:59:39.867Z,35.04
2019-04-02T12:02:09.104Z,34.75
2019-04-02T12:04:36.505Z,34.15
2019-04-02T12:07:03.977Z,34.37
2019-04-02T12:09:43.945Z,34.38
2019-04-02T12:12:00.631Z,35.11
2019-04-02T12:14:27.968Z,36.03
2019-04-02T12:16:55.358Z,35.85
2019-04-02T12:19:22.694Z,33.87
2019-04-02T12:21:50.082Z,33.43
2019-04-02T12:24:19.804Z,33.32
2019-04-02T12:26:46.677Z,33.21
2019-04-02T12:29:14.017Z,31.47
2019-04-02T12:31:41.414Z,32.36
2019-04-02T12:34:11.047Z,33.48
2019-04-02T12:36:38.009Z,33.93
2019-04-02T12:39:11.606Z,32.47
2019-04-02T12:41:39.470Z,32.49
2019-04-02T12:44:07.644Z,31.24
2019-04-02T12:46:35.025Z,31.16
2019-04-02T12:49:03.603Z,34.19
2019-04-02T12:51:31.621Z,33.14
2019-04-02T12:54:00.852Z,37.51
2019-04-02T12:56:28.353Z,36.70
2019-04-02T12:58:55.678Z,32.85
2019-04-02T13:01:23.163Z,33.58
2019-04-02T13:03:50.546Z,31.97
2019-04-02T13:06:17.934Z,32.51
2019-04-02T13:08:45.332Z,30.83
2019-04-02T13:11:14.083Z,31.84
2019-04-02T13:13:41.737Z,30.39
2019-04-02T13:16:09.171Z,30.62
2019-04-02T13:18:36.649Z,30.35
2019-04-02T13:21:05.490Z,31.43
2019-04-02T13:23:33.054Z,31.04
2019-04-02T13:26:00.438Z,30.98
2019-04-02T13:28:30.375Z,30.26
2019-04-02T13:30:57.187Z,29.08
2019-04-02T13:33:24.583Z,29.86
2019-04-02T13:35:51.965Z,30.71
2019-04-02T13:38:19.365Z,30.67
2019-04-02T13:40:46.726Z,30.34
2019-04-02T13:43:14.123Z,30.24
2019-04-02T13:45:41.529Z,30.36
2019-04-02T13:48:08.928Z,30.75
2019-04-02T13:50:36.331Z,30.83
2019-04-02T13:53:03.812Z,30.15
2019-04-02T13:55:31.208Z,29.75
2019-04-02T13:57:59.297Z,30.95
2019-04-02T14:01:11.844Z,30.28
2019-04-02T14:03:40.509Z,30.36
2019-04-02T14:06:08.082Z,30.04
2019-04-02T14:08:35.470Z,30.87
2019-04-02T14:11:03.052Z,30.81
2019-04-02T14:13:30.647Z,30.95
2019-04-02T14:15:58.052Z,30.46
2019-04-02T14:18:25.609Z,31.49
2019-04-02T14:20:53.208Z,30.39
2019-04-02T14:23:20.762Z,30.16
2019-04-02T14:25:48.281Z,30.81
2019-04-02T14:28:17.189Z,30.52
2019-04-02T14:30:45.392Z,29.49
2019-04-02T14:33:13.177Z,29.28
2019-04-02T14:35:40.910Z,29.45
2019-04-02T14:38:08.588Z,30.26
2019-04-02T14:40:36.422Z,29.82
2019-04-02T14:43:04.066Z,30.40
2019-04-02T14:45:31.805Z,31.51
2019-04-02T14:47:59.696Z,29.55
2019-04-02T14:50:30.851Z,29.88
2019-04-02T14:52:56.958Z,30.53
2019-04-02T14:55:24.758Z,30.39
2019-04-02T14:57:52.455Z,29.40
2019-04-02T15:00:20.029Z,30.40
2019-04-02T15:02:47.608Z,29.67
2019-04-02T15:05:15.316Z,29.67
2019-04-02T15:07:42.849Z,28.70
2019-04-02T15:10:10.520Z,28.03
2019-04-02T15:12:38.068Z,28.53
2019-04-02T15:15:05.930Z,28.96
2019-04-02T15:17:33.728Z,29.23
2019-04-02T15:20:01.415Z,29.29
2019-04-02T15:22:28.989Z,28.95
2019-04-02T15:24:56.673Z,28.91
2019-04-02T15:27:24.628Z,28.65
2019-04-02T15:29:52.499Z,29.01
2019-04-02T15:32:20.163Z,28.78
2019-04-02T15:34:48.007Z,29.19
2019-04-02T15:37:15.733Z,29.37
2019-04-02T15:39:44.281Z,28.90
2019-04-02T15:42:11.950Z,28.77
2019-04-02T15:44:39.686Z,28.71
2019-04-02T15:47:07.493Z,29.42
2019-04-02T15:49:35.275Z,28.76
2019-04-02T15:52:06.962Z,28.98
2019-04-02T15:54:34.931Z,29.25
2019-04-02T15:57:02.654Z,28.68
2019-04-02T15:59:30.400Z,30.46
2019-04-02T16:02:01.911Z,29.21
2019-04-02T16:04:28.755Z,29.93
2019-04-02T16:06:56.635Z,29.55
2019-04-02T16:09:24.406Z,29.94
2019-04-02T16:11:52.370Z,30.46
2019-04-02T16:14:20.311Z,30.41
2019-04-02T16:16:48.206Z,34.86
2019-04-02T16:19:16.008Z,35.58
2019-04-02T16:21:43.932Z,35.55
2019-04-02T16:24:11.698Z,35.83
2019-04-02T16:26:39.453Z,37.77
2019-04-02T16:29:07.359Z,34.98
2019-04-02T16:31:35.175Z,39.29
2019-04-02T16:34:03.210Z,39.95
2019-04-02T16:36:31.160Z,34.04
2019-04-02T16:38:58.991Z,33.64
2019-04-02T16:41:27.430Z,33.46
2019-04-02T16:43:55.308Z,37.36
2019-04-02T16:46:23.216Z,36.61
2019-04-02T16:48:51.628Z,36.09
2019-04-02T16:51:19.486Z,37.54
2019-04-02T16:53:47.328Z,37.17
2019-04-02T16:56:15.289Z,35.17
2019-04-02T16:58:43.213Z,32.82
2019-04-02T17:01:11.048Z,34.05
2019-04-02T17:03:48.239Z,35.41
2019-04-02T17:06:09.388Z,33.89
2019-04-02T17:08:37.348Z,33.95
2019-04-02T17:11:05.311Z,35.13
2019-04-02T17:13:34.530Z,34.13
2019-04-02T17:16:02.777Z,37.70
2019-04-02T17:18:30.664Z,39.47
2019-04-02T17:20:58.580Z,39.62
2019-04-02T17:23:26.571Z,41.02
2019-04-02T17:25:54.874Z,41.39
2019-04-02T17:28:23.666Z,41.68
2019-04-02T17:30:52.883Z,37.19
2019-04-02T17:33:21.960Z,42.10
2019-04-02T17:35:50.131Z,41.40
2019-04-02T17:38:18.237Z,39.17
2019-04-02T17:40:46.195Z,37.48
2019-04-02T17:43:14.052Z,38.49
2019-04-02T17:45:42.085Z,42.76
2019-04-02T17:48:10.122Z,42.10
2019-04-02T17:50:38.116Z,43.52
2019-04-02T17:53:08.787Z,44.21
2019-04-02T17:55:36.306Z,45.25
2019-04-02T17:58:04.345Z,42.87
2019-04-02T18:00:32.447Z,44.32
2019-04-02T18:03:00.525Z,45.25
2019-04-02T18:05:28.547Z,44.63
2019-04-02T18:07:56.643Z,44.34
2019-04-02T18:10:26.202Z,44.73
2019-04-02T18:12:54.612Z,44.96
2019-04-02T18:15:22.615Z,46.31
2019-04-02T18:17:50.572Z,45.70
2019-04-02T18:20:18.511Z,46.32
2019-04-02T18:22:46.458Z,45.76
2019-04-02T18:25:14.523Z,45.72
2019-04-02T18:27:43.974Z,46.75
2019-04-02T18:30:14.036Z,45.70
2019-04-02T18:32:42.696Z,45.62
2019-04-02T18:35:10.728Z,44.30
2019-04-02T18:37:38.738Z,45.02
2019-04-02T18:40:07.775Z,46.18
2019-04-02T18:42:36.772Z,47.90
2019-04-02T18:45:05.851Z,43.73
2019-04-02T18:47:35.385Z,44.25
2019-04-02T18:50:03.703Z,45.80
2019-04-02T18:52:31.790Z,44.80
2019-04-02T18:54:59.881Z,46.60
2019-04-02T18:57:27.887Z,42.03
2019-04-02T18:59:58.234Z,43.84
2019-04-02T19:02:29.261Z,40.89
2019-04-02T19:04:56.333Z,44.15
2019-04-02T19:07:24.832Z,48.31
2019-04-02T19:09:52.939Z,45.48
2019-04-02T19:12:20.863Z,45.17
2019-04-02T19:18:12.804Z,47.76
2019-04-02T19:20:41.077Z,46.96
2019-04-02T19:23:10.389Z,47.03
2019-04-02T19:25:38.854Z,46.62
2019-04-02T19:28:09.971Z,46.93
2019-04-02T19:30:38.583Z,48.72
2019-04-02T19:33:09.858Z,46.70
2019-04-02T19:35:37.955Z,46.12
2019-04-02T19:38:06.083Z,45.06
2019-04-02T19:40:34.647Z,47.15
2019-04-02T19:43:07.824Z,46.76
2019-04-02T19:45:32.569Z,47.53
2019-04-02T19:48:03.336Z,45.79
2019-04-02T19:50:30.486Z,46.74
2019-04-02T19:52:59.006Z,46.61
2019-04-02T19:55:26.992Z,48.19
2019-04-02T19:57:54.999Z,49.59
2019-04-02T20:00:23.051Z,50.58
2019-04-02T20:02:50.875Z,49.11
2019-04-02T20:05:19.803Z,47.99
2019-04-02T20:07:49.346Z,46.95
2019-04-02T20:10:17.511Z,49.26
2019-04-02T20:12:45.499Z,49.61
2019-04-02T20:15:13.609Z,48.44
2019-04-02T20:17:41.630Z,50.13
2019-04-02T20:20:10.027Z,51.52
2019-04-02T20:22:37.965Z,51.81
2019-04-02T20:25:06.131Z,52.31
2019-04-02T20:27:34.054Z,52.60
2019-04-02T20:30:04.900Z,47.72
2019-04-02T20:32:32.729Z,50.31
2019-04-02T20:35:00.709Z,50.64
2019-04-02T20:37:30.507Z,50.75
2019-04-02T20:39:59.015Z,50.64
2019-04-02T20:42:28.969Z,51.14
2019-04-02T20:44:57.287Z,51.11
2019-04-02T20:47:24.956Z,50.82
2019-04-02T20:49:52.906Z,50.49
2019-04-02T20:52:20.846Z,51.28
2019-04-02T20:54:48.810Z,51.50
2019-04-02T20:57:16.645Z,51.98
2019-04-02T20:59:46.721Z,51.82
2019-04-02T21:02:14.665Z,52.92
2019-04-02T21:04:52.046Z,52.19
2019-04-02T21:07:12.315Z,52.23
2019-04-02T21:09:39.943Z,51.40
2019-04-02T21:12:11.530Z,53.33
2019-04-02T21:14:37.406Z,54.05
2019-04-02T21:17:04.928Z,53.03
2019-04-02T21:19:32.409Z,52.85
2019-04-02T21:22:00.175Z,52.48
2019-04-02T21:24:27.641Z,52.52
2019-04-02T21:26:55.026Z,53.93
2019-04-02T21:29:23.630Z,54.36
2019-04-02T21:31:51.791Z,54.29
2019-04-02T21:34:19.222Z,53.16
2019-04-02T21:36:48.230Z,53.68
2019-04-02T21:39:17.048Z,53.64
2019-04-02T21:41:45.030Z,55.83
2019-04-02T21:44:12.591Z,56.51
2019-04-02T21:46:39.971Z,55.85
2019-04-02T21:49:07.586Z,56.36
2019-04-02T21:51:35.586Z,54.97
2019-04-02T21:54:04.426Z,56.08
2019-04-02T21:56:31.769Z,56.45
2019-04-02T21:58:59.161Z,56.45
2019-04-02T22:01:26.710Z,56.26
2019-04-02T22:03:54.119Z,56.63
2019-04-02T22:06:21.539Z,56.88
2019-04-02T22:08:48.909Z,56.42
2019-04-02T22:11:16.291Z,55.56
2019-04-02T22:13:43.626Z,56.25
2019-04-02T22:16:12.834Z,55.33
2019-04-02T22:18:41.557Z,55.48
2019-04-02T22:21:09.645Z,56.14
2019-04-02T22:23:37.012Z,56.62
2019-04-02T22:26:04.613Z,55.57
2019-04-02T22:28:31.990Z,56.49
2019-04-02T22:30:59.398Z,56.78
2019-04-02T22:33:36.324Z,57.62
2019-04-02T22:35:56.111Z,58.50
2019-04-02T22:38:24.748Z,57.84
2019-04-02T22:40:53.950Z,57.78
2019-04-02T22:43:23.709Z,58.92
2019-04-02T22:45:50.904Z,57.98
2019-04-02T22:48:18.303Z,58.80
2019-04-02T22:50:47.646Z,58.57
2019-04-02T22:53:15.007Z,58.00
2019-04-02T22:55:42.366Z,58.06
2019-04-02T22:58:09.796Z,58.23
2019-04-02T23:00:37.191Z,58.45
2019-04-02T23:03:04.591Z,58.88
2019-04-02T23:05:32.868Z,58.33
2019-04-02T23:08:03.231Z,58.97
2019-04-02T23:10:30.208Z,59.08
2019-04-02T23:12:57.622Z,58.43
2019-04-02T23:15:25.012Z,59.50
2019-04-02T23:17:55.688Z,59.08
2019-04-02T23:20:21.753Z,58.58
2019-04-02T23:22:49.091Z,59.38
2019-04-02T23:25:17.745Z,59.51
2019-04-02T23:27:46.977Z,58.84
2019-04-02T23:30:15.015Z,59.01
2019-04-02T23:32:42.431Z,58.64
2019-04-02T23:35:09.809Z,59.48
2019-04-02T23:37:37.251Z,60.38
2019-04-02T23:40:06.779Z,60.43
2019-04-02T23:42:34.189Z,60.43
2019-04-02T23:45:03.027Z,61.09
2019-04-02T23:47:31.763Z,59.95
2019-04-02T23:50:00.092Z,60.03
2019-04-02T23:52:27.470Z,59.55
2019-04-02T23:54:54.831Z,59.94
2019-04-02T23:57:22.231Z,60.63
2019-04-02T23:59:49.595Z,60.29
